Time;durP1;ratioP1;P1;durP2;ratioP2;P2;SDS_P1;SDS_P2;PMS_P1;PMS_P2;Temp;Humidity;BMP_temperature;BMP_pressure;BME280_temperature;BME280_humidity;BME280_pressure;Samples;Min_cycle;Max_cycle;Signal;HPM_P1;HPM_P2
2023/01/30 00:01:15;;;;;;;14.70;9.15;;;1.90;99.90;;;;;;5025010;28;20572;-83
2023/01/30 00:03:44;;;;;;;16.65;9.13;;;2.20;99.90;;;;;;5017538;28;20219;-83
2023/01/30 00:06:11;;;;;;;15.35;10.15;;;2.00;99.90;;;;;;5019984;28;20208;-83
2023/01/30 00:08:38;;;;;;;14.13;9.85;;;2.00;99.90;;;;;;5027983;28;20599;-82
2023/01/30 00:11:05;;;;;;;16.55;9.80;;;2.90;99.90;;;;;;5027140;28;20244;-82
2023/01/30 00:13:32;;;;;;;14.00;10.30;;;1.90;99.90;;;;;;5027774;28;20268;-82
2023/01/30 00:15:59;;;;;;;20.00;11.05;;;2.00;99.90;;;;;;5026962;28;20216;-83
2023/01/30 00:18:27;;;;;;;17.33;9.98;;;1.80;99.90;;;;;;5028468;28;20231;-83
2023/01/30 00:21:00;;;;;;;15.77;9.88;;;2.00;99.90;;;;;;5018535;28;20209;-84
2023/01/30 00:23:28;;;;;;;15.32;10.18;;;2.10;99.90;;;;;;5018475;28;20706;-83
2023/01/30 00:25:55;;;;;;;18.73;10.10;;;1.90;99.90;;;;;;5021817;28;20205;-82
2023/01/30 00:28:22;;;;;;;19.25;10.52;;;1.90;99.90;;;;;;5022461;28;20319;-83
2023/01/30 00:30:49;;;;;;;14.68;10.35;;;2.00;99.90;;;;;;5023730;28;20295;-84
2023/01/30 00:33:17;;;;;;;15.23;10.07;;;1.90;99.90;;;;;;5022694;28;20284;-83
2023/01/30 00:35:44;;;;;;;14.32;10.23;;;2.00;99.90;;;;;;5020544;28;20643;-83
2023/01/30 00:38:13;;;;;;;16.35;10.35;;;2.20;99.90;;;;;;5020977;28;20311;-83
2023/01/30 00:40:40;;;;;;;17.40;11.85;;;1.80;99.90;;;;;;5023098;28;20834;-83
2023/01/30 00:48:38;;;;;;;17.52;11.73;;;1.50;99.90;;;;;;5019984;28;20780;-83
2023/01/30 00:51:05;;;;;;;17.65;11.10;;;1.70;99.90;;;;;;5019514;28;20231;-82
2023/01/30 00:53:33;;;;;;;20.88;12.45;;;1.70;99.90;;;;;;5018713;28;20197;-83
2023/01/30 00:56:00;;;;;;;23.75;12.98;;;1.60;99.90;;;;;;5020416;28;20204;-83
2023/01/30 00:58:27;;;;;;;20.38;12.63;;;1.70;99.90;;;;;;5020592;28;20224;-83
2023/01/30 01:00:54;;;;;;;17.90;12.27;;;1.90;99.90;;;;;;5019613;28;20691;-83
2023/01/30 01:03:22;;;;;;;15.68;11.55;;;1.70;99.90;;;;;;5021057;28;20637;-83
2023/01/30 01:05:49;;;;;;;19.92;10.75;;;1.80;99.90;;;;;;5022050;28;20204;-83
2023/01/30 01:08:16;;;;;;;14.50;10.10;;;1.70;99.90;;;;;;5026170;28;20673;-83
2023/01/30 01:10:44;;;;;;;18.08;11.88;;;1.70;99.90;;;;;;5028107;28;20215;-83
2023/01/30 01:13:11;;;;;;;18.98;11.27;;;1.70;99.90;;;;;;5022470;28;20278;-83
2023/01/30 01:15:38;;;;;;;18.80;11.95;;;1.60;99.90;;;;;;5022813;28;20205;-83
2023/01/30 01:18:05;;;;;;;19.48;11.25;;;1.70;99.90;;;;;;5022209;28;20382;-83
2023/01/30 01:20:32;;;;;;;18.40;11.85;;;1.90;99.90;;;;;;5022588;28;20204;-82
2023/01/30 01:22:58;;;;;;;18.70;12.00;;;1.70;99.90;;;;;;5021081;28;20221;-83
2023/01/30 01:25:25;;;;;;;22.67;11.80;;;1.40;99.90;;;;;;5022605;28;20765;-81
2023/01/30 01:27:54;;;;;;;15.52;11.30;;;2.50;99.90;;;;;;5023531;28;20304;-82
2023/01/30 01:30:21;;;;;;;20.15;11.73;;;1.60;99.90;;;;;;5021414;28;20601;-83
2023/01/30 01:32:48;;;;;;;15.43;11.75;;;1.50;99.90;;;;;;5018829;28;20201;-83
2023/01/30 01:35:15;;;;;;;19.00;12.38;;;1.70;99.90;;;;;;5019435;28;20235;-83
2023/01/30 01:37:42;;;;;;;16.42;10.68;;;1.80;99.90;;;;;;5018509;28;20250;-82
2023/01/30 01:43:03;;;;;;;16.58;11.00;;;2.00;99.90;;;;;;5025554;28;20267;-83
2023/01/30 01:45:30;;;;;;;17.00;11.65;;;1.80;99.90;;;;;;5020652;28;20205;-83
2023/01/30 01:48:05;;;;;;;18.75;11.52;;;1.70;99.90;;;;;;5024457;28;20232;-83
2023/01/30 01:50:47;;;;;;;19.83;13.95;;;1.80;99.90;;;;;;5026193;28;20211;-82
2023/01/30 01:53:17;;;;;;;17.98;11.82;;;1.80;99.90;;;;;;5026109;28;20276;-82
2023/01/30 01:55:46;;;;;;;21.60;12.70;;;1.80;99.90;;;;;;5024020;28;20224;-82
2023/01/30 01:58:20;;;;;;;24.33;12.35;;;1.90;99.90;;;;;;5021905;28;20723;-82
2023/01/30 02:00:48;;;;;;;20.67;13.10;;;2.10;99.90;;;;;;5022495;28;20193;-82
2023/01/30 02:03:19;;;;;;;17.90;11.35;;;1.80;99.90;;;;;;5019641;28;20241;-83
2023/01/30 02:05:50;;;;;;;17.15;11.70;;;1.90;99.90;;;;;;5019781;28;20200;-83
2023/01/30 02:08:20;;;;;;;22.10;12.38;;;2.10;99.90;;;;;;5018937;28;20726;-82
2023/01/30 02:10:52;;;;;;;21.88;13.68;;;1.40;99.90;;;;;;5019437;28;20291;-83
2023/01/30 02:13:21;;;;;;;13.60;9.95;;;1.80;1.00;;;;;;5023197;28;20188;-82
2023/01/30 02:15:48;;;;;;;22.38;13.50;;;1.40;1.00;;;;;;5022227;28;20204;-83
2023/01/30 02:18:15;;;;;;;23.40;13.40;;;1.60;1.00;;;;;;5020631;28;20232;-83
2023/01/30 02:21:02;;;;;;;23.85;14.98;;;1.60;1.00;;;;;;5020009;28;20200;-83
2023/01/30 02:24:02;;;;;;;22.20;13.02;;;1.50;1.00;;;;;;5018348;28;20258;-83
2023/01/30 02:27:07;;;;;;;21.65;13.60;;;1.20;12.40;;;;;;5018715;28;20219;-83
2023/01/30 02:30:03;;;;;;;21.48;12.55;;;1.50;1.00;;;;;;4956910;29;20241;-83
2023/01/30 02:32:36;;;;;;;20.42;13.80;;;1.70;51.40;;;;;;4965840;29;20194;-83
2023/01/30 02:35:11;;;;;;;22.13;13.43;;;1.60;54.90;;;;;;5009930;28;20236;-83
2023/01/30 02:37:49;;;;;;;21.00;13.27;;;1.50;24.90;;;;;;5028185;28;20256;-82
2023/01/30 02:40:28;;;;;;;24.65;14.75;;;1.70;28.30;;;;;;5018882;28;20216;-83
2023/01/30 02:43:02;;;;;;;22.50;12.80;;;1.60;1.00;;;;;;5017799;28;20191;-83
2023/01/30 02:45:36;;;;;;;23.33;15.63;;;1.70;1.00;;;;;;5018105;28;20195;-83
2023/01/30 02:48:06;;;;;;;21.33;14.07;;;1.70;9.00;;;;;;5017816;28;20319;-84
2023/01/30 02:50:36;;;;;;;20.90;14.27;;;1.70;15.70;;;;;;5019821;28;20715;-83
2023/01/30 02:53:04;;;;;;;18.95;12.95;;;1.80;95.90;;;;;;5018416;28;20211;-83
2023/01/30 02:55:31;;;;;;;19.65;12.05;;;1.80;99.90;;;;;;5017792;28;20200;-83
2023/01/30 02:57:59;;;;;;;28.98;15.55;;;1.60;48.30;;;;;;5017355;28;20224;-83
2023/01/30 03:00:42;;;;;;;24.90;14.75;;;1.20;99.90;;;;;;5017920;28;20289;-83
2023/01/30 03:03:30;;;;;;;25.73;14.55;;;1.50;99.90;;;;;;5025843;28;20303;-82
2023/01/30 03:06:22;;;;;;;21.90;13.98;;;1.10;99.90;;;;;;5028129;28;20707;-82
2023/01/30 03:09:02;;;;;;;19.85;14.52;;;1.20;99.90;;;;;;5023765;28;20224;-83
2023/01/30 03:11:37;;;;;;;22.83;14.52;;;1.40;99.90;;;;;;5018672;28;20222;-83
2023/01/30 03:14:13;;;;;;;25.88;15.07;;;1.40;99.90;;;;;;5018837;28;20208;-83
2023/01/30 03:16:41;;;;;;;23.95;15.20;;;1.40;99.90;;;;;;5018161;28;20184;-83
2023/01/30 03:19:12;;;;;;;23.20;14.23;;;1.40;99.90;;;;;;5018468;28;20229;-82
2023/01/30 03:21:43;;;;;;;25.65;15.25;;;0.80;99.90;;;;;;5017675;28;20614;-83
2023/01/30 03:24:10;;;;;;;25.50;16.50;;;1.40;99.90;;;;;;5020234;28;20319;-82
2023/01/30 03:26:43;;;;;;;25.65;14.57;;;1.40;99.90;;;;;;5024419;28;20571;-82
2023/01/30 03:29:10;;;;;;;24.20;14.18;;;1.20;99.90;;;;;;5016229;28;20323;-82
2023/01/30 03:31:37;;;;;;;24.52;14.10;;;1.50;99.90;;;;;;5016527;28;20210;-83
2023/01/30 03:34:03;;;;;;;21.45;13.52;;;1.50;99.90;;;;;;5017467;28;20197;-83
2023/01/30 03:36:32;;;;;;;21.10;13.05;;;1.30;99.90;;;;;;5021919;28;20211;-83
2023/01/30 03:38:59;;;;;;;24.33;14.05;;;1.50;99.90;;;;;;5022234;28;20230;-82
2023/01/30 03:41:25;;;;;;;22.45;15.32;;;1.60;99.90;;;;;;5024056;28;20322;-83
2023/01/30 03:43:52;;;;;;;22.05;13.60;;;1.40;99.90;;;;;;5024814;28;20312;-83
2023/01/30 03:46:19;;;;;;;30.15;16.38;;;1.60;99.90;;;;;;5027722;28;20303;-83
2023/01/30 03:48:46;;;;;;;22.20;15.45;;;1.70;99.90;;;;;;5028169;28;20315;-82
2023/01/30 03:51:13;;;;;;;25.75;14.68;;;1.70;99.90;;;;;;5029047;28;20268;-82
2023/01/30 03:53:41;;;;;;;25.33;14.15;;;1.80;99.90;;;;;;5028291;28;20260;-83
2023/01/30 03:56:08;;;;;;;22.15;14.45;;;1.70;99.90;;;;;;5025614;28;20205;-82
2023/01/30 03:58:34;;;;;;;22.98;14.27;;;1.70;99.90;;;;;;5024752;28;20319;-83
2023/01/30 04:01:01;;;;;;;23.98;15.10;;;1.40;99.90;;;;;;5028830;28;20205;-82
2023/01/30 04:03:28;;;;;;;25.45;14.57;;;1.70;99.90;;;;;;5030836;28;20255;-82
2023/01/30 04:05:55;;;;;;;27.60;14.13;;;1.70;99.90;;;;;;5034432;28;20212;-82
2023/01/30 04:08:22;;;;;;;23.42;14.57;;;1.80;99.90;;;;;;5039863;28;20225;-81
2023/01/30 04:10:50;;;;;;;21.83;14.20;;;1.80;99.90;;;;;;5040602;28;20244;-81
2023/01/30 04:13:17;;;;;;;23.58;14.23;;;1.80;99.90;;;;;;5029041;28;20208;-81
2023/01/30 04:15:43;;;;;;;23.90;14.52;;;1.80;99.90;;;;;;5021902;28;20209;-82
2023/01/30 04:18:10;;;;;;;30.42;15.52;;;1.90;99.90;;;;;;5021616;28;20315;-82
2023/01/30 04:20:38;;;;;;;24.42;14.52;;;2.00;99.90;;;;;;5022097;28;20272;-83
2023/01/30 04:23:04;;;;;;;23.23;13.85;;;1.60;99.90;;;;;;5022137;28;20211;-83
2023/01/30 04:25:31;;;;;;;24.13;13.57;;;1.90;99.90;;;;;;5022421;28;20228;-83
2023/01/30 04:27:59;;;;;;;24.55;14.68;;;1.60;99.90;;;;;;5021962;28;20233;-83
2023/01/30 04:30:26;;;;;;;19.55;12.20;;;1.70;99.90;;;;;;5022477;28;20185;-82
2023/01/30 04:32:53;;;;;;;23.45;13.50;;;1.70;99.90;;;;;;5023158;28;20295;-83
2023/01/30 04:35:20;;;;;;;22.55;13.95;;;1.90;99.90;;;;;;5028320;28;20211;-83
2023/01/30 04:37:47;;;;;;;21.15;13.77;;;2.20;99.90;;;;;;5030862;28;20314;-82
2023/01/30 04:40:14;;;;;;;18.02;12.35;;;2.10;99.90;;;;;;5030894;28;20272;-83
2023/01/30 04:42:41;;;;;;;24.80;14.05;;;2.10;99.90;;;;;;5034556;28;20193;-82
2023/01/30 04:45:10;;;;;;;20.98;13.52;;;2.20;99.90;;;;;;5035596;28;20244;-83
2023/01/30 04:47:37;;;;;;;24.98;13.93;;;2.40;99.90;;;;;;5036951;28;20205;-82
2023/01/30 04:50:04;;;;;;;18.83;13.43;;;2.20;99.90;;;;;;5025604;28;20675;-83
2023/01/30 04:52:31;;;;;;;24.25;14.02;;;2.10;99.90;;;;;;5023076;28;20227;-83
2023/01/30 04:54:58;;;;;;;23.55;12.98;;;2.30;99.90;;;;;;5025553;28;20207;-82
2023/01/30 04:57:25;;;;;;;20.77;12.75;;;2.20;99.90;;;;;;5026532;28;20208;-82
2023/01/30 04:59:51;;;;;;;26.10;13.15;;;2.20;99.90;;;;;;5024658;28;20288;-82
2023/01/30 05:02:20;;;;;;;22.15;13.25;;;2.30;99.90;;;;;;5027730;28;20216;-83
2023/01/30 05:04:49;;;;;;;23.80;14.57;;;1.90;99.90;;;;;;5027088;28;20751;-83
2023/01/30 05:07:16;;;;;;;23.67;13.15;;;2.60;99.90;;;;;;5028792;28;20204;-83
2023/01/30 05:09:43;;;;;;;19.35;12.60;;;2.30;99.90;;;;;;5032066;28;20703;-83
2023/01/30 05:12:09;;;;;;;25.55;14.98;;;2.40;1.00;;;;;;5027155;28;20243;-83
2023/01/30 05:14:40;;;;;;;18.63;12.05;;;1.90;1.00;;;;;;5023685;28;20219;-83
2023/01/30 05:17:06;;;;;;;19.83;14.02;;;2.00;1.00;;;;;;5022173;28;20605;-83
2023/01/30 05:19:35;;;;;;;27.35;14.43;;;2.20;1.00;;;;;;5022932;28;20288;-82
2023/01/30 05:22:01;;;;;;;26.20;13.75;;;1.90;1.00;;;;;;5024707;28;20214;-82
2023/01/30 05:24:28;;;;;;;20.80;13.90;;;2.30;1.00;;;;;;5023557;28;20231;-83
2023/01/30 05:26:55;;;;;;;20.95;12.88;;;2.00;1.00;;;;;;5024208;28;20666;-83
2023/01/30 05:29:22;;;;;;;23.15;12.93;;;1.30;1.00;;;;;;5026023;28;20236;-82
2023/01/30 05:31:49;;;;;;;23.48;15.23;;;1.90;1.00;;;;;;5024296;28;20211;-81
2023/01/30 05:34:16;;;;;;;27.02;14.82;;;1.90;1.00;;;;;;5025664;28;20215;-83
2023/01/30 05:36:44;;;;;;;25.48;14.98;;;2.60;1.00;;;;;;5022335;28;20204;-83
2023/01/30 05:39:11;;;;;;;24.70;13.93;;;;;;;;;;5021875;28;20230;-83
2023/01/30 05:41:38;;;;;;;27.08;15.98;;;1.70;1.00;;;;;;5022008;28;20295;-83
2023/01/30 05:44:05;;;;;;;24.48;15.75;;;1.70;1.00;;;;;;5022108;28;20216;-82
2023/01/30 05:46:32;;;;;;;22.75;14.48;;;2.10;1.00;;;;;;5022904;28;20291;-82
2023/01/30 05:48:59;;;;;;;23.20;13.75;;;2.20;1.00;;;;;;5021844;28;20797;-83
2023/01/30 05:51:27;;;;;;;25.08;15.00;;;2.00;1.00;;;;;;5021653;28;20551;-83
2023/01/30 05:53:56;;;;;;;26.15;15.77;;;1.90;1.00;;;;;;5023900;28;20208;-82
2023/01/30 05:56:23;;;;;;;29.83;15.57;;;1.90;1.00;;;;;;5021943;28;20204;-83
2023/01/30 05:58:51;;;;;;;32.33;16.02;;;1.80;1.00;;;;;;5023776;28;20239;-82
2023/01/30 06:01:18;;;;;;;30.90;17.13;;;1.80;1.00;;;;;;5024901;28;20219;-82
2023/01/30 06:03:45;;;;;;;28.33;15.55;;;1.90;1.00;;;;;;5021771;28;20272;-81
2023/01/30 06:06:13;;;;;;;23.33;14.88;;;1.80;1.00;;;;;;5019107;28;20211;-81
2023/01/30 06:08:40;;;;;;;26.80;14.88;;;2.20;1.00;;;;;;5018604;28;20266;-80
2023/01/30 06:11:10;;;;;;;27.27;15.15;;;1.10;1.00;;;;;;5018876;28;20204;-81
2023/01/30 06:13:37;;;;;;;29.98;15.50;;;2.10;1.00;;;;;;5018200;28;20208;-81
2023/01/30 06:16:04;;;;;;;28.40;15.93;;;1.60;1.00;;;;;;5019943;28;20204;-80
2023/01/30 06:18:31;;;;;;;26.52;15.00;;;1.70;1.00;;;;;;5019195;28;20235;-81
2023/01/30 06:20:58;;;;;;;29.73;17.30;;;2.20;1.00;;;;;;5018467;28;20308;-80
2023/01/30 06:23:25;;;;;;;26.63;14.60;;;1.70;9.30;;;;;;5019373;28;20200;-80
2023/01/30 06:25:53;;;;;;;24.92;16.55;;;2.10;1.00;;;;;;5018434;28;20235;-81
2023/01/30 06:28:22;;;;;;;29.75;15.30;;;2.00;1.00;;;;;;5018141;28;20756;-80
2023/01/30 06:30:49;;;;;;;25.67;15.65;;;2.10;1.00;;;;;;5025028;28;20210;-80
2023/01/30 06:33:16;;;;;;;27.48;16.02;;;2.10;1.00;;;;;;5030439;28;20215;-80
2023/01/30 06:35:44;;;;;;;23.75;14.75;;;2.10;42.00;;;;;;5023241;28;20289;-80
2023/01/30 06:38:13;;;;;;;31.15;15.95;;;2.30;51.00;;;;;;5018330;28;20287;-81
2023/01/30 06:40:40;;;;;;;28.13;14.70;;;2.10;55.40;;;;;;5017842;28;20678;-80
2023/01/30 06:43:07;;;;;;;26.88;15.55;;;2.10;21.90;;;;;;5022424;28;20215;-81
2023/01/30 06:45:35;;;;;;;24.20;15.82;;;2.70;1.00;;;;;;5030645;28;20240;-80
2023/01/30 06:48:02;;;;;;;25.35;15.75;;;;;;;;;;5030311;28;20220;-80
2023/01/30 06:50:30;;;;;;;25.30;15.10;;;2.30;80.20;;;;;;5020558;28;20272;-80
2023/01/30 06:52:58;;;;;;;28.40;15.18;;;2.30;81.90;;;;;;5020330;28;20204;-81
2023/01/30 06:55:27;;;;;;;30.75;16.67;;;2.60;1.00;;;;;;5016414;28;20243;-81
2023/01/30 06:58:02;;;;;;;24.20;15.27;;;2.40;99.90;;;;;;5016959;28;20225;-80
2023/01/30 07:00:29;;;;;;;26.02;13.80;;;2.60;1.00;;;;;;5017347;28;20192;-80
2023/01/30 07:02:57;;;;;;;27.83;16.13;;;2.90;97.10;;;;;;5016686;28;20204;-80
2023/01/30 07:05:24;;;;;;;20.30;14.25;;;2.60;99.90;;;;;;5017309;28;20766;-81
2023/01/30 07:07:51;;;;;;;25.73;14.00;;;2.90;99.90;;;;;;5017331;28;20236;-80
2023/01/30 07:10:18;;;;;;;21.02;14.52;;;3.00;99.90;;;;;;5017124;28;20679;-80
2023/01/30 07:12:45;;;;;;;27.27;12.85;;;3.00;63.70;;;;;;5027132;28;20287;-81
2023/01/30 07:15:13;;;;;;;22.75;12.52;;;3.00;99.90;;;;;;5028280;28;20255;-80
2023/01/30 07:17:40;;;;;;;20.30;12.73;;;2.80;99.90;;;;;;5028156;28;20263;-81
2023/01/30 07:20:11;;;;;;;21.00;13.48;;;3.00;2.10;;;;;;5024319;28;20235;-79
2023/01/30 07:22:38;;;;;;;19.65;11.00;;;3.00;99.90;;;;;;5021933;28;20205;-81
2023/01/30 07:25:05;;;;;;;23.25;11.45;;;2.90;99.90;;;;;;5018283;28;20311;-81
2023/01/30 07:27:33;;;;;;;20.13;11.85;;;3.00;99.90;;;;;;5017058;28;20211;-80
2023/01/30 07:30:00;;;;;;;24.73;14.23;;;3.10;99.90;;;;;;5017467;28;20189;-81
2023/01/30 07:32:27;;;;;;;17.27;11.52;;;3.30;43.80;;;;;;5017208;28;20209;-80
2023/01/30 07:34:53;;;;;;;17.58;10.93;;;3.30;99.90;;;;;;5017351;28;20608;-81
2023/01/30 07:37:22;;;;;;;21.42;11.30;;;3.40;48.90;;;;;;5020439;28;20260;-81
2023/01/30 07:39:48;;;;;;;21.35;12.32;;;3.40;44.80;;;;;;5021327;28;20204;-80
2023/01/30 07:42:15;;;;;;;20.83;13.20;;;3.70;99.90;;;;;;5021089;28;20200;-80
2023/01/30 07:44:42;;;;;;;20.23;10.70;;;3.60;64.60;;;;;;5021785;28;20220;-81
2023/01/30 07:47:09;;;;;;;15.98;10.50;;;3.50;49.90;;;;;;5021958;28;20267;-82
2023/01/30 07:49:36;;;;;;;17.70;11.43;;;3.60;68.90;;;;;;5024618;28;20251;-82
2023/01/30 07:52:03;;;;;;;19.52;10.52;;;;;;;;;;5030639;28;20264;-81
2023/01/30 07:54:31;;;;;;;18.40;11.52;;;3.60;59.10;;;;;;5031193;28;20304;-80
2023/01/30 07:56:58;;;;;;;25.20;12.40;;;3.30;99.90;;;;;;5031725;28;20224;-80
2023/01/30 07:59:25;;;;;;;20.40;11.88;;;3.40;99.90;;;;;;5030461;28;20283;-80
2023/01/30 08:01:51;;;;;;;13.98;9.93;;;3.50;99.90;;;;;;5027816;28;20208;-80
2023/01/30 08:04:18;;;;;;;15.80;11.13;;;3.40;99.90;;;;;;5033433;28;20208;-80
2023/01/30 08:06:47;;;;;;;18.65;12.00;;;3.70;99.90;;;;;;5032231;28;20231;-80
2023/01/30 08:09:14;;;;;;;21.75;10.13;;;3.90;99.90;;;;;;5026120;28;20227;-80
2023/01/30 08:11:43;;;;;;;13.25;9.25;;;4.00;99.90;;;;;;5023568;28;20288;-80
2023/01/30 08:14:10;;;;;;;22.05;9.70;;;3.80;99.90;;;;;;5023399;28;20259;-80
2023/01/30 08:16:37;;;;;;;15.30;9.32;;;;;;;;;;5021484;28;20236;-80
2023/01/30 08:19:05;;;;;;;13.40;7.93;;;4.00;99.90;;;;;;5022295;28;20259;-80
2023/01/30 08:21:32;;;;;;;14.20;7.47;;;4.10;99.90;;;;;;5022857;28;20211;-81
2023/01/30 08:23:59;;;;;;;12.73;7.90;;;4.30;99.90;;;;;;5024137;28;20291;-80
2023/01/30 08:26:26;;;;;;;9.45;7.38;;;4.20;99.90;;;;;;5026301;28;20209;-80
2023/01/30 08:28:55;;;;;;;12.45;7.65;;;4.20;99.90;;;;;;5020377;28;20332;-80
2023/01/30 08:31:22;;;;;;;6.50;5.85;;;4.50;99.90;;;;;;5021377;28;20215;-79
2023/01/30 08:33:49;;;;;;;10.95;6.80;;;4.50;99.90;;;;;;5021829;28;20211;-79
2023/01/30 08:36:15;;;;;;;8.55;6.38;;;4.30;99.90;;;;;;5020365;28;20203;-80
2023/01/30 08:38:42;;;;;;;9.60;6.68;;;4.20;99.90;;;;;;5018981;28;20244;-80
2023/01/30 08:41:09;;;;;;;6.63;5.80;;;4.10;99.90;;;;;;5031176;28;20255;-79
2023/01/30 08:43:36;;;;;;;7.45;6.05;;;4.40;99.90;;;;;;5040164;28;20232;-79
2023/01/30 08:46:04;;;;;;;8.50;5.95;;;4.40;99.90;;;;;;5040162;28;20196;-79
2023/01/30 08:48:31;;;;;;;6.22;4.75;;;4.20;99.90;;;;;;5027848;28;20234;-80
2023/01/30 08:50:58;;;;;;;7.07;5.30;;;4.20;99.90;;;;;;5027054;28;20555;-80
2023/01/30 08:53:25;;;;;;;7.65;5.78;;;4.50;99.90;;;;;;5021366;28;20208;-79
2023/01/30 08:55:52;;;;;;;6.40;4.45;;;4.50;99.90;;;;;;5023976;28;20303;-80
2023/01/30 08:58:20;;;;;;;8.52;5.38;;;4.30;99.90;;;;;;5024710;28;20736;-80
2023/01/30 09:00:48;;;;;;;5.43;4.68;;;4.80;99.90;;;;;;5023199;28;20287;-81
2023/01/30 09:03:17;;;;;;;6.57;4.82;;;4.80;99.90;;;;;;5018651;28;20547;-81
2023/01/30 09:05:44;;;;;;;7.20;5.03;;;4.60;99.90;;;;;;5019489;28;20240;-80
2023/01/30 09:08:10;;;;;;;10.13;4.93;;;4.80;99.90;;;;;;5022518;28;20234;-80
2023/01/30 09:10:37;;;;;;;5.25;4.30;;;4.60;78.40;;;;;;5023837;28;20208;-80
2023/01/30 09:13:04;;;;;;;6.20;4.43;;;4.70;68.70;;;;;;5021781;28;20243;-80
2023/01/30 09:15:32;;;;;;;6.40;3.80;;;4.80;47.30;;;;;;5024324;28;20197;-79
2023/01/30 09:17:59;;;;;;;4.80;3.80;;;4.80;23.40;;;;;;5018334;28;20234;-79
2023/01/30 09:20:27;;;;;;;6.22;4.22;;;5.00;99.90;;;;;;5017235;28;20295;-79
2023/01/30 09:22:54;;;;;;;4.13;3.78;;;4.60;76.30;;;;;;5016367;28;20299;-79
2023/01/30 09:25:20;;;;;;;4.70;3.83;;;4.70;99.90;;;;;;5016407;28;20224;-79
2023/01/30 09:27:49;;;;;;;5.22;3.28;;;4.80;1.00;;;;;;5017939;28;20295;-78
2023/01/30 09:30:16;;;;;;;5.30;3.78;;;4.80;97.60;;;;;;5019594;28;20205;-79
2023/01/30 09:32:44;;;;;;;4.38;3.22;;;4.90;65.70;;;;;;5016219;28;20200;-78
2023/01/30 09:35:11;;;;;;;5.55;3.58;;;5.00;1.00;;;;;;5016088;28;20235;-79
2023/01/30 09:37:46;;;;;;;6.25;4.28;;;4.80;41.70;;;;;;5016569;28;20208;-79
2023/01/30 09:40:15;;;;;;;6.50;4.07;;;4.80;42.90;;;;;;5015949;28;20204;-79
2023/01/30 09:43:10;;;;;;;8.00;4.47;;;5.30;12.40;;;;;;5016097;28;20548;-79
2023/01/30 09:45:44;;;;;;;5.13;3.60;;;5.10;44.00;;;;;;5015620;28;20217;-79
2023/01/30 09:48:17;;;;;;;4.75;3.35;;;5.30;1.00;;;;;;5017223;28;20656;-79
2023/01/30 09:51:06;;;;;;;7.60;3.88;;;5.00;38.80;;;;;;5019112;28;20625;-80
2023/01/30 09:53:55;;;;;;;9.10;4.75;;;5.40;46.50;;;;;;5007163;28;20295;-79
2023/01/30 09:56:21;;;;;;;4.72;3.30;;;5.30;43.10;;;;;;5018245;28;20189;-79
2023/01/30 09:58:51;;;;;;;4.20;3.15;;;5.20;1.00;;;;;;5016878;28;20220;-80
2023/01/30 10:01:24;;;;;;;9.18;3.60;;;5.40;1.00;;;;;;5018181;28;20197;-79
2023/01/30 10:04:02;;;;;;;6.07;3.45;;;5.60;1.00;;;;;;5017371;28;20188;-80
2023/01/30 10:06:30;;;;;;;5.00;3.38;;;5.10;1.00;;;;;;5017006;28;20298;-79
2023/01/30 10:09:05;;;;;;;2.95;2.45;;;5.40;1.00;;;;;;5016376;28;20256;-79
2023/01/30 10:11:43;;;;;;;8.10;2.67;;;5.20;1.00;;;;;;5021399;28;20188;-78
2023/01/30 10:14:40;;;;;;;4.28;2.80;;;5.40;1.00;;;;;;5027219;28;20284;-79
2023/01/30 10:17:23;;;;;;;7.10;1.92;;;5.50;1.00;;;;;;5028327;28;20219;-79
2023/01/30 10:20:02;;;;;;;2.70;2.00;;;5.80;1.00;;;;;;5025040;28;20196;-79
2023/01/30 10:22:41;;;;;;;5.93;2.17;;;5.90;1.00;;;;;;5020795;28;20204;-79
2023/01/30 10:25:21;;;;;;;8.40;2.50;;;5.90;99.90;;;;;;5018519;28;20562;-80
2023/01/30 10:28:05;;;;;;;3.13;2.15;;;5.80;1.00;;;;;;5015755;28;20697;-79
2023/01/30 10:30:33;;;;;;;5.43;1.92;;;5.60;99.90;;;;;;5016638;28;20215;-79
2023/01/30 10:33:04;;;;;;;4.85;2.88;;;5.60;99.90;;;;;;5015491;28;20219;-80
2023/01/30 10:35:34;;;;;;;18.95;2.78;;;5.70;99.90;;;;;;5017395;28;20543;-79
2023/01/30 10:38:07;;;;;;;8.43;2.50;;;5.70;99.90;;;;;;5016459;28;20597;-79
2023/01/30 10:40:41;;;;;;;5.28;2.22;;;6.40;99.90;;;;;;5015378;28;20196;-79
2023/01/30 10:43:15;;;;;;;7.25;3.25;;;6.30;99.90;;;;;;5017233;28;20185;-79
2023/01/30 10:45:48;;;;;;;2.28;1.77;;;6.40;99.90;;;;;;5019145;28;20223;-79
2023/01/30 10:48:34;;;;;;;13.85;2.50;;;6.20;99.90;;;;;;5016235;28;20579;-79
2023/01/30 10:51:05;;;;;;;6.10;1.77;;;6.20;90.50;;;;;;5015098;28;20325;-80
2023/01/30 10:53:37;;;;;;;9.75;2.72;;;6.10;1.00;;;;;;5018731;28;20193;-80
2023/01/30 10:56:12;;;;;;;7.22;2.30;;;5.80;1.00;;;;;;5028604;28;20195;-79
2023/01/30 10:58:48;;;;;;;12.85;3.30;;;6.50;1.00;;;;;;5032982;28;20215;-79
2023/01/30 11:01:22;;;;;;;5.88;2.65;;;5.80;1.00;;;;;;5023341;28;20248;-79
2023/01/30 11:03:53;;;;;;;19.23;3.15;;;6.20;1.00;;;;;;5019234;28;20284;-79
2023/01/30 11:06:23;;;;;;;18.92;3.17;;;6.20;1.00;;;;;;5016324;28;20699;-79
2023/01/30 11:08:51;;;;;;;8.38;2.40;;;6.20;1.00;;;;;;5017119;28;20239;-79
2023/01/30 11:11:26;;;;;;;14.73;3.03;;;6.10;1.00;;;;;;5015662;28;20658;-80
2023/01/30 11:14:04;;;;;;;9.63;2.97;;;6.30;1.00;;;;;;5015757;28;20184;-78
2023/01/30 11:16:33;;;;;;;2.83;2.10;;;6.10;1.00;;;;;;5014944;28;20184;-79
2023/01/30 11:19:05;;;;;;;10.65;3.10;;;5.90;1.00;;;;;;5014775;28;20232;-79
2023/01/30 11:21:32;;;;;;;10.27;3.17;;;5.90;1.00;;;;;;5015698;28;20193;-80
2023/01/30 11:24:10;;;;;;;7.65;3.08;;;6.20;1.00;;;;;;5016643;28;20279;-79
2023/01/30 11:26:38;;;;;;;13.25;2.53;;;5.70;99.90;;;;;;5017479;28;20211;-78
2023/01/30 11:29:24;;;;;;;7.18;2.40;;;6.20;1.00;;;;;;5051402;22;20303;-81
2023/01/30 11:31:51;;;;;;;10.93;2.85;;;6.10;1.00;;;;;;5036868;28;20173;-81
2023/01/30 11:34:21;;;;;;;9.30;2.83;;;6.30;1.00;;;;;;5036289;28;20188;-82
2023/01/30 11:36:48;;;;;;;6.57;2.95;;;6.10;99.90;;;;;;5034755;28;20232;-82
2023/01/30 11:39:28;;;;;;;15.18;2.95;;;6.40;1.00;;;;;;5036371;28;20236;-85
2023/01/30 11:42:03;;;;;;;10.80;2.65;;;6.10;1.00;;;;;;5036087;28;20223;-82
2023/01/30 11:44:32;;;;;;;11.65;3.05;;;6.60;1.00;;;;;;5036445;28;20212;-81
2023/01/30 11:47:02;;;;;;;10.30;3.13;;;6.30;99.90;;;;;;5036756;28;20229;-83
2023/01/30 11:49:33;;;;;;;13.88;3.33;;;6.20;99.90;;;;;;5032300;28;20224;-84
2023/01/30 11:52:01;;;;;;;8.70;2.88;;;5.80;1.00;;;;;;5035161;28;20176;-82
2023/01/30 11:54:32;;;;;;;11.68;3.33;;;6.20;1.00;;;;;;5028079;28;20231;-84
2023/01/30 11:57:04;;;;;;;12.65;3.17;;;6.30;1.00;;;;;;5027020;28;20189;-85
2023/01/30 11:59:35;;;;;;;4.63;2.25;;;6.50;1.00;;;;;;5026400;28;20221;-84
2023/01/30 12:02:05;;;;;;;12.75;3.10;;;6.20;99.90;;;;;;5024530;28;20223;-84
2023/01/30 12:04:32;;;;;;;13.45;2.63;;;6.20;99.90;;;;;;5027089;28;20228;-83
2023/01/30 12:07:08;;;;;;;13.52;2.83;;;6.30;99.90;;;;;;5024781;28;20255;-82
2023/01/30 12:09:36;;;;;;;12.50;3.10;;;6.20;1.00;;;;;;5025529;28;20279;-82
2023/01/30 12:12:29;;;;;;;12.73;3.20;;;6.20;1.00;;;;;;5036689;28;20205;-82
2023/01/30 12:15:05;;;;;;;3.72;2.10;;;6.20;99.90;;;;;;5031183;28;20691;-82
2023/01/30 12:17:39;;;;;;;6.13;2.63;;;4.50;1.00;;;;;;5029337;28;20196;-82
2023/01/30 12:20:14;;;;;;;9.30;2.20;;;3.80;99.90;;;;;;5023331;28;20271;-84
2023/01/30 12:22:49;;;;;;;8.15;2.33;;;3.80;99.90;;;;;;5027047;28;20215;-84
2023/01/30 12:25:23;;;;;;;9.15;2.30;;;4.00;1.00;;;;;;5024118;28;20191;-81
2023/01/30 12:27:58;;;;;;;6.88;2.25;;;3.80;1.00;;;;;;5024274;28;20208;-81
2023/01/30 12:30:31;;;;;;;8.30;2.95;;;3.90;1.00;;;;;;5036756;28;20241;-81
2023/01/30 12:33:02;;;;;;;7.35;2.50;;;4.10;1.00;;;;;;5040545;28;20169;-82
2023/01/30 12:35:41;;;;;;;17.10;4.07;;;4.30;1.00;;;;;;5040039;28;20253;-80
2023/01/30 12:38:18;;;;;;;12.02;3.28;;;4.40;1.00;;;;;;5035545;28;20251;-82
2023/01/30 12:40:53;;;;;;;12.27;3.85;;;4.70;1.00;;;;;;5037190;28;20199;-82
2023/01/30 12:43:45;;;;;;;9.05;3.53;;;4.80;1.00;;;;;;5027506;28;20220;-82
2023/01/30 12:46:29;;;;;;;11.10;4.00;;;5.10;1.00;;;;;;5013188;28;20284;-83
2023/01/30 12:49:16;;;;;;;9.63;2.78;;;5.10;99.90;;;;;;5024493;28;20235;-83
2023/01/30 12:51:56;;;;;;;10.85;3.35;;;5.30;99.90;;;;;;5024992;28;20276;-82
2023/01/30 12:54:36;;;;;;;14.02;2.78;;;5.20;99.90;;;;;;5025113;28;20212;-84
2023/01/30 12:57:15;;;;;;;24.10;2.40;;;5.20;99.90;;;;;;5034136;28;20264;-83
2023/01/30 12:59:50;;;;;;;8.82;2.58;;;5.20;99.90;;;;;;5038109;28;20248;-83
2023/01/30 13:02:44;;;;;;;9.52;4.85;;;5.30;99.90;;;;;;5034080;28;20189;-83
2023/01/30 13:05:30;;;;;;;18.17;3.08;;;5.40;99.90;;;;;;5023999;28;20595;-83
2023/01/30 13:08:10;;;;;;;12.38;2.70;;;5.50;99.90;;;;;;5022742;28;20242;-82
2023/01/30 13:10:43;;;;;;;15.07;3.08;;;5.60;99.90;;;;;;5021752;28;20619;-84
2023/01/30 13:13:17;;;;;;;5.88;2.20;;;5.70;99.90;;;;;;5021628;28;20699;-83